createdAt,value
2023-03-28T00:01:13.255Z,2.81
2023-03-28T00:04:16.992Z,2.83
2023-03-28T00:07:21.746Z,2.80
2023-03-28T00:10:23.915Z,2.75
2023-03-28T00:13:27.515Z,2.73
2023-03-28T00:16:45.639Z,2.72
2023-03-28T00:19:53.424Z,2.65
2023-03-28T00:22:54.964Z,2.58
2023-03-28T00:26:04.996Z,2.65
2023-03-28T00:29:11.949Z,2.59
2023-03-28T00:32:13.608Z,2.55
2023-03-28T00:35:15.924Z,2.40
2023-03-28T00:38:19.856Z,2.33
2023-03-28T00:41:43.534Z,2.30
2023-03-28T00:44:47.956Z,2.27
2023-03-28T00:48:06.794Z,2.24
2023-03-28T00:51:19.625Z,2.19
2023-03-28T00:57:44.924Z,2.20
2023-03-28T01:00:47.336Z,2.17
2023-03-28T01:04:13.857Z,2.09
2023-03-28T01:07:16.638Z,2.05
2023-03-28T01:10:19.350Z,1.95
2023-03-28T01:13:26.148Z,1.94
2023-03-28T01:16:42.098Z,1.86
2023-03-28T01:20:13.149Z,1.82
2023-03-28T01:23:39.999Z,1.66
2023-03-28T01:30:20.118Z,1.60
2023-03-28T01:34:15.895Z,1.51
2023-03-28T01:37:36.548Z,1.56
2023-03-28T01:40:48.728Z,1.48
2023-03-28T01:44:17.076Z,1.43
2023-03-28T01:47:37.842Z,1.34
2023-03-28T01:54:41.196Z,1.25
2023-03-28T01:58:04.994Z,1.20
2023-03-28T02:01:58.950Z,1.23
2023-03-28T02:05:08.953Z,1.17
2023-03-28T02:08:14.424Z,1.09
2023-03-28T02:11:35.410Z,1.13
2023-03-28T02:15:02.057Z,1.11
2023-03-28T02:18:29.611Z,1.14
2023-03-28T02:21:58.503Z,1.19
2023-03-28T02:25:18.922Z,1.09
2023-03-28T02:28:32.576Z,1.04
2023-03-28T02:35:31.702Z,0.99
2023-03-28T02:38:47.944Z,0.98
2023-03-28T02:42:24.910Z,0.91
2023-03-28T02:45:47.876Z,0.87
2023-03-28T02:49:12.808Z,0.85
2023-03-28T02:52:51.918Z,0.96
2023-03-28T02:56:04.278Z,1.01
2023-03-28T02:59:39.323Z,1.02
2023-03-28T03:02:43.454Z,0.93
2023-03-28T03:06:01.457Z,0.94
2023-03-28T03:09:04.862Z,0.87
2023-03-28T03:12:07.006Z,0.86
2023-03-28T03:15:10.587Z,0.88
2023-03-28T03:18:36.957Z,0.80
2023-03-28T03:21:39.630Z,0.79
2023-03-28T03:24:54.298Z,0.84
2023-03-28T03:27:56.025Z,0.76
2023-03-28T03:30:58.030Z,0.72
2023-03-28T03:33:59.578Z,0.70
2023-03-28T03:37:12.245Z,0.71
2023-03-28T03:40:14.067Z,0.66
2023-03-28T03:43:26.241Z,0.71
2023-03-28T03:46:30.788Z,0.72
2023-03-28T03:49:41.623Z,0.70
2023-03-28T03:52:43.402Z,0.66
2023-03-28T03:55:45.344Z,0.61
2023-03-28T03:58:48.575Z,0.61
2023-03-28T04:02:02.569Z,0.59
2023-03-28T04:05:17.666Z,0.63
2023-03-28T04:08:37.858Z,0.65
2023-03-28T04:11:41.523Z,0.74
2023-03-28T04:18:15.511Z,0.48
2023-03-28T04:21:44.065Z,0.41
2023-03-28T04:24:48.402Z,0.45
2023-03-28T04:27:55.789Z,0.45
2023-03-28T04:31:00.121Z,0.45
2023-03-28T04:34:20.209Z,0.64
2023-03-28T04:37:37.854Z,0.54
2023-03-28T04:40:46.992Z,0.65
2023-03-28T04:43:56.761Z,0.54
2023-03-28T04:46:59.206Z,0.50
2023-03-28T04:50:01.678Z,0.49
2023-03-28T04:53:10.554Z,0.45
2023-03-28T04:56:20.370Z,0.33
2023-03-28T04:59:21.998Z,0.45
2023-03-28T05:02:27.655Z,0.46
2023-03-28T05:05:36.902Z,0.44
2023-03-28T05:08:46.603Z,0.44
2023-03-28T05:11:49.316Z,0.45
2023-03-28T05:14:51.639Z,0.46
2023-03-28T05:17:58.091Z,0.45
2023-03-28T05:21:06.185Z,0.49
2023-03-28T05:24:16.932Z,0.48
2023-03-28T05:27:18.847Z,0.49
2023-03-28T05:30:24.650Z,0.51
2023-03-28T05:33:32.314Z,0.54
2023-03-28T05:36:43.119Z,0.59
2023-03-28T05:39:54.874Z,0.58
2023-03-28T05:42:59.601Z,0.60
2023-03-28T05:46:01.657Z,0.58
2023-03-28T05:49:16.919Z,0.57
2023-03-28T05:52:20.654Z,0.56
2023-03-28T05:55:22.744Z,0.63
2023-03-28T05:58:25.619Z,0.61
2023-03-28T06:01:33.332Z,0.69
2023-03-28T06:04:43.576Z,0.75
2023-03-28T06:07:47.387Z,0.69
2023-03-28T06:11:02.372Z,0.64
2023-03-28T06:14:09.362Z,0.71
2023-03-28T06:17:11.844Z,0.75
2023-03-28T06:20:24.260Z,0.64
2023-03-28T06:23:29.028Z,0.67
2023-03-28T06:29:53.457Z,0.71
2023-03-28T06:32:55.136Z,0.71
2023-03-28T06:36:02.515Z,0.82
2023-03-28T06:39:07.654Z,0.93
2023-03-28T06:42:09.182Z,1.05
2023-03-28T06:45:21.739Z,1.18
2023-03-28T06:48:36.227Z,1.21
2023-03-28T06:51:58.421Z,1.22
2023-03-28T06:55:06.352Z,1.37
2023-03-28T06:58:08.172Z,1.46
2023-03-28T07:01:27.782Z,1.63
2023-03-28T07:04:39.883Z,1.81
2023-03-28T07:07:41.409Z,2.15
2023-03-28T07:10:43.793Z,2.48
2023-03-28T07:13:50.701Z,2.57
2023-03-28T07:16:54.104Z,2.84
2023-03-28T07:19:57.308Z,3.03
2023-03-28T07:23:00.872Z,3.18
2023-03-28T07:26:04.287Z,3.31
2023-03-28T07:29:08.849Z,3.46
2023-03-28T07:32:11.188Z,3.65
2023-03-28T07:35:12.744Z,3.74
2023-03-28T07:38:22.137Z,4.10
2023-03-28T07:41:26.581Z,4.21
2023-03-28T07:44:28.368Z,4.31
2023-03-28T07:47:30.560Z,4.31
2023-03-28T07:50:32.273Z,4.59
2023-03-28T07:53:37.733Z,4.55
2023-03-28T07:56:41.723Z,4.84
2023-03-28T07:59:53.307Z,4.90
2023-03-28T08:02:57.633Z,5.09
2023-03-28T08:06:17.062Z,5.40
2023-03-28T08:09:36.652Z,5.63
2023-03-28T08:12:55.961Z,5.57
2023-03-28T08:15:57.936Z,5.75
2023-03-28T08:19:10.510Z,6.00
2023-03-28T08:22:38.039Z,6.13
2023-03-28T08:26:06.071Z,6.21
2023-03-28T08:29:17.668Z,6.04
2023-03-28T08:32:21.437Z,5.90
2023-03-28T08:35:29.570Z,6.01
2023-03-28T08:38:38.062Z,6.46
2023-03-28T08:42:17.246Z,6.48
2023-03-28T08:45:21.586Z,6.32
2023-03-28T08:48:39.697Z,6.24
2023-03-28T08:51:47.540Z,6.58
2023-03-28T08:55:11.087Z,6.64
2023-03-28T08:58:28.225Z,6.93
2023-03-28T09:01:32.884Z,7.13
2023-03-28T09:04:36.182Z,7.27
2023-03-28T09:08:01.792Z,7.44
2023-03-28T09:11:25.384Z,7.82
2023-03-28T09:14:52.427Z,7.44
2023-03-28T09:18:06.575Z,7.39
2023-03-28T09:21:24.296Z,7.64
2023-03-28T09:24:41.664Z,7.71
2023-03-28T09:27:59.737Z,8.12
2023-03-28T09:31:05.474Z,7.87
2023-03-28T09:34:07.246Z,8.26
2023-03-28T09:37:40.272Z,8.32
2023-03-28T09:40:47.710Z,8.18
2023-03-28T09:43:59.227Z,8.08
2023-03-28T09:47:19.025Z,8.41
2023-03-28T09:53:46.582Z,7.60
2023-03-28T09:56:48.733Z,7.82
2023-03-28T10:00:21.146Z,7.69
2023-03-28T10:03:39.002Z,7.90
2023-03-28T10:06:44.686Z,7.92
2023-03-28T10:09:54.745Z,8.39
2023-03-28T10:13:11.646Z,8.76
2023-03-28T10:20:21.573Z,8.07
2023-03-28T10:23:34.132Z,7.30
2023-03-28T10:26:47.086Z,7.77
2023-03-28T10:29:48.737Z,7.68
2023-03-28T10:36:50.311Z,7.32
2023-03-28T10:40:24.621Z,7.30
2023-03-28T10:43:49.705Z,6.97
2023-03-28T10:47:16.542Z,7.63
2023-03-28T10:50:31.004Z,7.31
2023-03-28T10:53:52.021Z,7.25
2023-03-28T10:57:03.758Z,7.95
2023-03-28T11:00:23.577Z,8.28
2023-03-28T11:04:05.547Z,8.64
2023-03-28T11:07:39.056Z,8.91
2023-03-28T11:11:33.474Z,8.47
2023-03-28T11:14:41.943Z,8.55
2023-03-28T11:18:21.259Z,8.99
2023-03-28T11:21:33.964Z,8.62
2023-03-28T11:24:43.046Z,8.81
2023-03-28T11:28:46.547Z,8.88
2023-03-28T11:39:59.909Z,9.24
2023-03-28T11:43:17.706Z,9.28
2023-03-28T11:46:40.630Z,9.52
2023-03-28T11:49:56.740Z,9.56
2023-03-28T11:53:32.209Z,10.01
2023-03-28T11:56:41.183Z,9.84
2023-03-28T12:00:42.259Z,9.75
2023-03-28T12:04:16.906Z,9.63
2023-03-28T12:07:25.208Z,10.28
2023-03-28T12:10:50.526Z,9.95
2023-03-28T12:14:19.758Z,10.20
2023-03-28T12:17:45.293Z,10.32
2023-03-28T12:20:52.636Z,10.03
2023-03-28T12:24:34.109Z,10.57
2023-03-28T12:28:18.854Z,10.90
2023-03-28T12:31:56.508Z,11.00
2023-03-28T12:35:31.412Z,10.83
2023-03-28T12:38:55.748Z,9.85
2023-03-28T12:42:10.738Z,9.83
2023-03-28T12:45:41.931Z,10.36
2023-03-28T12:48:51.522Z,9.97
2023-03-28T12:52:07.086Z,10.46
2023-03-28T12:55:38.702Z,9.97
2023-03-28T12:58:42.437Z,10.60
2023-03-28T13:02:11.535Z,10.56
2023-03-28T13:06:03.239Z,10.17
2023-03-28T13:09:28.569Z,10.59
2023-03-28T13:13:04.306Z,10.36
2023-03-28T13:16:15.792Z,10.84
2023-03-28T13:19:19.453Z,11.62
2023-03-28T13:22:42.563Z,11.53
2023-03-28T13:25:58.986Z,10.88
2023-03-28T13:29:01.292Z,11.37
2023-03-28T13:32:06.861Z,11.92
2023-03-28T13:35:43.906Z,11.99
2023-03-28T13:38:48.748Z,12.20
2023-03-28T13:41:52.027Z,11.93
2023-03-28T13:44:57.524Z,12.76
2023-03-28T13:48:12.794Z,12.71
2023-03-28T13:51:26.496Z,12.60
2023-03-28T13:54:28.974Z,12.46
2023-03-28T13:57:31.639Z,12.70
2023-03-28T14:00:35.620Z,12.80
2023-03-28T14:03:49.837Z,13.24
2023-03-28T14:06:54.933Z,12.74
2023-03-28T14:09:57.563Z,12.84
2023-03-28T14:16:36.471Z,12.93
2023-03-28T14:19:42.243Z,12.95
2023-03-28T14:22:59.798Z,13.75
2023-03-28T14:26:07.199Z,13.03
2023-03-28T14:32:37.815Z,13.74
2023-03-28T14:36:00.555Z,12.80
2023-03-28T14:39:13.385Z,12.97
2023-03-28T14:42:21.050Z,12.94
2023-03-28T14:45:27.188Z,12.74
2023-03-28T14:48:29.440Z,13.37
2023-03-28T14:51:53.524Z,13.24
2023-03-28T14:55:05.409Z,13.27
2023-03-28T14:58:09.087Z,13.15
2023-03-28T15:01:23.175Z,13.00
2023-03-28T15:04:26.623Z,12.89
2023-03-28T15:07:33.975Z,13.42
2023-03-28T15:10:38.824Z,13.01
2023-03-28T15:13:52.191Z,12.87
2023-03-28T15:16:55.347Z,12.52
2023-03-28T15:23:28.921Z,12.61
2023-03-28T15:26:38.157Z,12.98
2023-03-28T15:29:40.070Z,13.30
2023-03-28T15:32:45.112Z,13.64
2023-03-28T15:35:47.187Z,13.43
2023-03-28T15:38:50.521Z,13.64
2023-03-28T15:42:01.366Z,12.72
2023-03-28T15:45:30.046Z,13.04
2023-03-28T15:49:01.946Z,13.17
2023-03-28T15:52:09.330Z,12.86
2023-03-28T15:55:22.617Z,12.70
2023-03-28T15:58:24.276Z,12.97
2023-03-28T16:01:31.838Z,12.73
2023-03-28T16:04:33.451Z,12.44
2023-03-28T16:07:50.823Z,11.74
2023-03-28T16:10:52.503Z,11.38
2023-03-28T16:14:20.522Z,11.61
2023-03-28T16:17:44.687Z,11.30
2023-03-28T16:21:11.597Z,11.28
2023-03-28T16:24:13.453Z,11.22
2023-03-28T16:27:15.514Z,11.03
2023-03-28T16:30:28.726Z,10.76
2023-03-28T16:33:30.641Z,10.75
2023-03-28T16:36:35.282Z,10.88
2023-03-28T16:39:47.356Z,10.98
2023-03-28T16:42:48.984Z,10.87
2023-03-28T16:45:50.765Z,10.77
2023-03-28T16:52:16.992Z,10.83
2023-03-28T16:58:46.700Z,10.47
2023-03-28T17:01:53.496Z,10.55
2023-03-28T17:04:55.030Z,10.49
2023-03-28T17:08:05.950Z,10.62
2023-03-28T17:11:09.984Z,10.60
2023-03-28T17:14:17.701Z,10.53
2023-03-28T17:17:20.086Z,10.42
2023-03-28T17:20:21.741Z,10.38
2023-03-28T17:23:23.328Z,10.26
2023-03-28T17:26:27.963Z,10.13
2023-03-28T17:29:31.002Z,9.94
2023-03-28T17:32:32.765Z,9.70
2023-03-28T17:38:52.185Z,9.17
2023-03-28T17:41:54.529Z,9.11
2023-03-28T17:44:57.291Z,9.00
2023-03-28T17:47:59.136Z,8.88
2023-03-28T17:51:01.029Z,8.85
2023-03-28T17:54:04.812Z,8.70
2023-03-28T17:57:07.986Z,8.65
2023-03-28T18:00:14.314Z,8.55
2023-03-28T18:03:24.307Z,8.49
2023-03-28T18:06:51.958Z,8.47
2023-03-28T18:10:03.186Z,8.61
2023-03-28T18:13:07.868Z,8.58
2023-03-28T18:16:12.770Z,8.49
2023-03-28T18:19:18.278Z,8.38
2023-03-28T18:22:27.014Z,8.42
2023-03-28T18:25:32.314Z,8.36
2023-03-28T18:28:37.733Z,8.25
2023-03-28T18:31:47.639Z,8.24
2023-03-28T18:38:23.108Z,8.16
2023-03-28T18:41:30.476Z,8.11
2023-03-28T18:44:36.514Z,8.01
2023-03-28T18:47:41.376Z,8.04
2023-03-28T18:50:45.370Z,7.91
2023-03-28T18:53:50.068Z,7.93
2023-03-28T18:56:51.718Z,7.92
2023-03-28T18:59:59.374Z,7.88
2023-03-28T19:03:02.111Z,7.92
2023-03-28T19:06:08.682Z,8.00
2023-03-28T19:09:10.809Z,8.01
2023-03-28T19:12:18.452Z,7.97
2023-03-28T19:15:20.251Z,7.93
2023-03-28T19:18:26.323Z,7.89
2023-03-28T19:21:30.421Z,7.81
2023-03-28T19:24:32.569Z,7.81
2023-03-28T19:27:36.691Z,7.87
2023-03-28T19:30:48.301Z,7.91
2023-03-28T19:37:14.177Z,8.09
2023-03-28T19:40:19.643Z,7.92
2023-03-28T19:43:29.472Z,8.00
2023-03-28T19:46:34.658Z,8.09
2023-03-28T19:49:50.092Z,8.05
2023-03-28T19:52:53.811Z,8.12
2023-03-28T19:55:59.829Z,8.13
2023-03-28T19:59:01.754Z,8.07
2023-03-28T20:02:03.518Z,8.18
2023-03-28T20:05:06.211Z,8.22
2023-03-28T20:08:14.599Z,8.36
2023-03-28T20:11:16.920Z,8.28
2023-03-28T20:14:21.650Z,8.26
2023-03-28T20:17:27.211Z,8.37
2023-03-28T20:20:28.757Z,8.45
2023-03-28T20:23:33.835Z,8.61
2023-03-28T20:26:53.957Z,8.78
2023-03-28T20:29:55.805Z,8.79
2023-03-28T20:33:07.501Z,8.58
2023-03-28T20:36:16.518Z,8.91
2023-03-28T20:39:18.103Z,8.98
2023-03-28T20:42:21.780Z,8.99
2023-03-28T20:45:29.414Z,8.89
2023-03-28T20:48:50.397Z,8.99
2023-03-28T20:51:54.747Z,9.00
2023-03-28T20:54:57.250Z,8.92
2023-03-28T20:58:01.017Z,8.85
2023-03-28T21:01:04.593Z,8.88
2023-03-28T21:04:09.305Z,8.62
2023-03-28T21:07:11.242Z,8.51
2023-03-28T21:10:16.528Z,8.59
2023-03-28T21:13:22.879Z,8.55
2023-03-28T21:16:28.681Z,8.64
2023-03-28T21:19:30.262Z,8.76
2023-03-28T21:22:50.128Z,8.58
2023-03-28T21:25:52.851Z,8.56
2023-03-28T21:28:54.641Z,8.46
2023-03-28T21:31:56.472Z,8.44
2023-03-28T21:35:15.320Z,8.35
2023-03-28T21:38:17.050Z,8.34
2023-03-28T21:41:18.703Z,8.39
2023-03-28T21:44:20.391Z,8.40
2023-03-28T21:47:21.969Z,8.68
2023-03-28T21:50:30.500Z,8.97
2023-03-28T21:53:36.742Z,9.43
2023-03-28T21:56:40.052Z,9.34
2023-03-28T22:06:15.505Z,9.36
2023-03-28T22:09:19.607Z,8.99
2023-03-28T22:12:22.839Z,8.84
2023-03-28T22:15:26.126Z,8.62
2023-03-28T22:18:28.261Z,8.86
2023-03-28T22:21:30.377Z,8.78
2023-03-28T22:24:31.928Z,8.57
2023-03-28T22:27:37.501Z,8.69
2023-03-28T22:30:40.120Z,8.59
2023-03-28T22:33:41.951Z,8.52
2023-03-28T22:36:43.984Z,8.59
2023-03-28T22:43:10.342Z,8.61
2023-03-28T22:46:20.025Z,8.61
2023-03-28T22:49:24.634Z,8.56
2023-03-28T22:52:26.195Z,8.50
2023-03-28T22:55:28.515Z,8.56
2023-03-28T22:58:33.798Z,8.65
2023-03-28T23:01:38.558Z,8.72
2023-03-28T23:04:40.978Z,8.48
2023-03-28T23:07:45.528Z,8.58
2023-03-28T23:10:47.883Z,8.77
2023-03-28T23:13:49.427Z,8.88
2023-03-28T23:16:51.001Z,9.06
2023-03-28T23:19:52.932Z,9.01
2023-03-28T23:22:56.013Z,8.78
2023-03-28T23:29:17.067Z,8.36
2023-03-28T23:32:18.617Z,8.78
2023-03-28T23:35:24.165Z,8.95
2023-03-28T23:38:25.651Z,9.00
2023-03-28T23:41:27.966Z,8.92
2023-03-28T23:44:30.732Z,9.08
2023-03-28T23:47:39.778Z,9.15
2023-03-28T23:50:43.820Z,9.21
2023-03-28T23:53:50.433Z,9.17
2023-03-28T23:56:52.542Z,9.37
2023-03-28T23:59:57.254Z,9.31
